sensor_id;sensor_type;location;lat;lon;timestamp;P1;durP1;ratioP1;P2;durP2;ratioP2
7398;SDS011;3740;50.700;7.184;2022-09-21T00:00:43;5.17;;;3.20;;
7398;SDS011;3740;50.700;7.184;2022-09-21T00:03:29;5.73;;;3.40;;
7398;SDS011;3740;50.700;7.184;2022-09-21T00:06:16;5.03;;;3.53;;
7398;SDS011;3740;50.700;7.184;2022-09-21T00:09:03;6.03;;;3.63;;
7398;SDS011;3740;50.700;7.184;2022-09-21T00:11:50;4.07;;;3.53;;
7398;SDS011;3740;50.700;7.184;2022-09-21T00:14:36;4.33;;;3.10;;
7398;SDS011;3740;50.700;7.184;2022-09-21T00:17:22;5.17;;;3.40;;
7398;SDS011;3740;50.700;7.184;2022-09-21T00:20:08;4.37;;;3.20;;
7398;SDS011;3740;50.700;7.184;2022-09-21T00:22:54;3.20;;;2.90;;
7398;SDS011;3740;50.700;7.184;2022-09-21T00:25:40;4.63;;;2.97;;
7398;SDS011;3740;50.700;7.184;2022-09-21T00:28:26;3.30;;;3.00;;
7398;SDS011;3740;50.700;7.184;2022-09-21T00:31:13;4.43;;;3.23;;
7398;SDS011;3740;50.700;7.184;2022-09-21T00:33:59;3.67;;;3.03;;
7398;SDS011;3740;50.700;7.184;2022-09-21T00:36:47;3.87;;;2.97;;
7398;SDS011;3740;50.700;7.184;2022-09-21T00:39:33;3.97;;;3.47;;
7398;SDS011;3740;50.700;7.184;2022-09-21T00:42:27;4.57;;;3.40;;
7398;SDS011;3740;50.700;7.184;2022-09-21T00:45:15;4.97;;;3.10;;
7398;SDS011;3740;50.700;7.184;2022-09-21T00:48:07;4.30;;;3.10;;
7398;SDS011;3740;50.700;7.184;2022-09-21T00:50:54;4.80;;;3.20;;
7398;SDS011;3740;50.700;7.184;2022-09-21T00:53:43;4.77;;;3.20;;
7398;SDS011;3740;50.700;7.184;2022-09-21T00:56:30;5.47;;;3.30;;
7398;SDS011;3740;50.700;7.184;2022-09-21T00:59:15;6.70;;;3.20;;
7398;SDS011;3740;50.700;7.184;2022-09-21T01:02:03;4.43;;;3.00;;
7398;SDS011;3740;50.700;7.184;2022-09-21T01:04:51;4.10;;;2.93;;
7398;SDS011;3740;50.700;7.184;2022-09-21T01:07:43;5.60;;;3.50;;
7398;SDS011;3740;50.700;7.184;2022-09-21T01:10:34;7.23;;;4.20;;
7398;SDS011;3740;50.700;7.184;2022-09-21T01:13:50;5.70;;;3.73;;
7398;SDS011;3740;50.700;7.184;2022-09-21T01:17:02;5.53;;;4.20;;
7398;SDS011;3740;50.700;7.184;2022-09-21T01:23:11;5.67;;;3.70;;
7398;SDS011;3740;50.700;7.184;2022-09-21T01:32:11;5.07;;;3.20;;
7398;SDS011;3740;50.700;7.184;2022-09-21T01:35:21;4.87;;;3.40;;
7398;SDS011;3740;50.700;7.184;2022-09-21T01:38:20;5.43;;;3.27;;
7398;SDS011;3740;50.700;7.184;2022-09-21T01:41:18;4.13;;;3.20;;
7398;SDS011;3740;50.700;7.184;2022-09-21T01:44:14;4.07;;;3.13;;
7398;SDS011;3740;50.700;7.184;2022-09-21T01:47:10;5.23;;;3.30;;
7398;SDS011;3740;50.700;7.184;2022-09-21T01:49:58;5.00;;;3.20;;
7398;SDS011;3740;50.700;7.184;2022-09-21T01:53:00;4.13;;;3.13;;
7398;SDS011;3740;50.700;7.184;2022-09-21T01:55:52;3.93;;;3.30;;
7398;SDS011;3740;50.700;7.184;2022-09-21T01:58:44;5.47;;;3.60;;
7398;SDS011;3740;50.700;7.184;2022-09-21T02:01:35;5.17;;;3.03;;
7398;SDS011;3740;50.700;7.184;2022-09-21T02:04:27;4.60;;;3.40;;
7398;SDS011;3740;50.700;7.184;2022-09-21T02:07:14;4.87;;;3.33;;
7398;SDS011;3740;50.700;7.184;2022-09-21T02:10:02;4.53;;;3.50;;
7398;SDS011;3740;50.700;7.184;2022-09-21T02:12:52;4.03;;;3.37;;
7398;SDS011;3740;50.700;7.184;2022-09-21T02:15:50;5.10;;;3.47;;
7398;SDS011;3740;50.700;7.184;2022-09-21T02:25:01;4.53;;;3.23;;
7398;SDS011;3740;50.700;7.184;2022-09-21T02:31:03;4.33;;;3.53;;
7398;SDS011;3740;50.700;7.184;2022-09-21T02:36:51;4.37;;;3.67;;
7398;SDS011;3740;50.700;7.184;2022-09-21T02:42:45;4.13;;;3.13;;
7398;SDS011;3740;50.700;7.184;2022-09-21T02:45:40;5.97;;;3.40;;
7398;SDS011;3740;50.700;7.184;2022-09-21T02:48:32;3.80;;;3.40;;
7398;SDS011;3740;50.700;7.184;2022-09-21T02:51:31;5.83;;;3.40;;
7398;SDS011;3740;50.700;7.184;2022-09-21T02:54:23;3.63;;;3.33;;
7398;SDS011;3740;50.700;7.184;2022-09-21T02:57:11;6.73;;;3.77;;
7398;SDS011;3740;50.700;7.184;2022-09-21T03:00:04;7.03;;;3.77;;
7398;SDS011;3740;50.700;7.184;2022-09-21T03:02:50;4.67;;;3.53;;
7398;SDS011;3740;50.700;7.184;2022-09-21T03:05:36;6.47;;;3.83;;
7398;SDS011;3740;50.700;7.184;2022-09-21T03:08:22;3.90;;;3.10;;
7398;SDS011;3740;50.700;7.184;2022-09-21T03:11:08;5.47;;;4.17;;
7398;SDS011;3740;50.700;7.184;2022-09-21T03:13:55;5.00;;;4.00;;
7398;SDS011;3740;50.700;7.184;2022-09-21T03:16:41;4.60;;;3.80;;
7398;SDS011;3740;50.700;7.184;2022-09-21T03:19:27;6.23;;;4.23;;
7398;SDS011;3740;50.700;7.184;2022-09-21T03:22:13;5.37;;;3.93;;
7398;SDS011;3740;50.700;7.184;2022-09-21T03:25:01;4.83;;;3.73;;
7398;SDS011;3740;50.700;7.184;2022-09-21T03:27:47;5.07;;;3.87;;
7398;SDS011;3740;50.700;7.184;2022-09-21T03:30:33;4.37;;;3.83;;
7398;SDS011;3740;50.700;7.184;2022-09-21T03:33:19;4.63;;;3.87;;
7398;SDS011;3740;50.700;7.184;2022-09-21T03:36:05;5.57;;;4.00;;
7398;SDS011;3740;50.700;7.184;2022-09-21T03:38:52;4.60;;;4.20;;
7398;SDS011;3740;50.700;7.184;2022-09-21T03:41:38;5.60;;;4.27;;
7398;SDS011;3740;50.700;7.184;2022-09-21T03:44:24;6.93;;;4.20;;
7398;SDS011;3740;50.700;7.184;2022-09-21T03:47:11;9.63;;;5.10;;
7398;SDS011;3740;50.700;7.184;2022-09-21T03:49:56;7.00;;;4.40;;
7398;SDS011;3740;50.700;7.184;2022-09-21T03:52:43;5.77;;;4.40;;
7398;SDS011;3740;50.700;7.184;2022-09-21T03:55:28;5.77;;;4.80;;
7398;SDS011;3740;50.700;7.184;2022-09-21T03:58:15;5.80;;;4.57;;
7398;SDS011;3740;50.700;7.184;2022-09-21T04:01:01;6.57;;;4.90;;
7398;SDS011;3740;50.700;7.184;2022-09-21T04:03:48;5.80;;;4.63;;
7398;SDS011;3740;50.700;7.184;2022-09-21T04:06:33;6.47;;;4.87;;
7398;SDS011;3740;50.700;7.184;2022-09-21T04:09:20;5.63;;;4.90;;
7398;SDS011;3740;50.700;7.184;2022-09-21T04:12:05;6.23;;;4.40;;
7398;SDS011;3740;50.700;7.184;2022-09-21T04:14:52;6.80;;;4.87;;
7398;SDS011;3740;50.700;7.184;2022-09-21T04:17:38;6.10;;;4.93;;
7398;SDS011;3740;50.700;7.184;2022-09-21T04:20:24;7.00;;;4.50;;
7398;SDS011;3740;50.700;7.184;2022-09-21T04:23:10;6.77;;;5.53;;
7398;SDS011;3740;50.700;7.184;2022-09-21T04:25:56;6.97;;;5.70;;
7398;SDS011;3740;50.700;7.184;2022-09-21T04:28:42;7.33;;;5.73;;
7398;SDS011;3740;50.700;7.184;2022-09-21T04:31:28;8.47;;;6.97;;
7398;SDS011;3740;50.700;7.184;2022-09-21T04:34:14;7.77;;;6.90;;
7398;SDS011;3740;50.700;7.184;2022-09-21T04:37:00;11.63;;;7.00;;
7398;SDS011;3740;50.700;7.184;2022-09-21T04:39:46;8.30;;;6.50;;
7398;SDS011;3740;50.700;7.184;2022-09-21T04:42:32;8.93;;;7.10;;
7398;SDS011;3740;50.700;7.184;2022-09-21T04:45:19;8.63;;;6.77;;
7398;SDS011;3740;50.700;7.184;2022-09-21T04:48:05;11.27;;;7.30;;
7398;SDS011;3740;50.700;7.184;2022-09-21T04:50:51;11.47;;;7.03;;
7398;SDS011;3740;50.700;7.184;2022-09-21T04:53:38;10.40;;;7.40;;
7398;SDS011;3740;50.700;7.184;2022-09-21T04:56:25;10.73;;;7.60;;
7398;SDS011;3740;50.700;7.184;2022-09-21T04:59:11;8.77;;;7.70;;
7398;SDS011;3740;50.700;7.184;2022-09-21T05:01:56;10.10;;;7.43;;
7398;SDS011;3740;50.700;7.184;2022-09-21T05:04:42;9.20;;;8.30;;
7398;SDS011;3740;50.700;7.184;2022-09-21T05:07:28;10.17;;;7.93;;
7398;SDS011;3740;50.700;7.184;2022-09-21T05:10:14;9.77;;;8.27;;
7398;SDS011;3740;50.700;7.184;2022-09-21T05:13:00;9.23;;;8.23;;
7398;SDS011;3740;50.700;7.184;2022-09-21T05:15:46;11.13;;;8.13;;
7398;SDS011;3740;50.700;7.184;2022-09-21T05:18:32;8.70;;;7.90;;
7398;SDS011;3740;50.700;7.184;2022-09-21T05:21:18;9.10;;;8.00;;
7398;SDS011;3740;50.700;7.184;2022-09-21T05:24:04;8.50;;;7.37;;
7398;SDS011;3740;50.700;7.184;2022-09-21T05:26:50;8.53;;;7.63;;
7398;SDS011;3740;50.700;7.184;2022-09-21T05:29:36;9.43;;;7.27;;
7398;SDS011;3740;50.700;7.184;2022-09-21T05:35:42;8.90;;;7.33;;
7398;SDS011;3740;50.700;7.184;2022-09-21T05:38:39;7.30;;;6.70;;
7398;SDS011;3740;50.700;7.184;2022-09-21T05:41:25;9.67;;;7.40;;
7398;SDS011;3740;50.700;7.184;2022-09-21T05:44:11;7.77;;;7.03;;
7398;SDS011;3740;50.700;7.184;2022-09-21T05:50:37;7.67;;;6.87;;
7398;SDS011;3740;50.700;7.184;2022-09-21T05:56:09;9.63;;;7.97;;
7398;SDS011;3740;50.700;7.184;2022-09-21T06:05:17;9.17;;;7.57;;
7398;SDS011;3740;50.700;7.184;2022-09-21T06:08:03;8.67;;;7.73;;
7398;SDS011;3740;50.700;7.184;2022-09-21T06:10:49;9.30;;;7.93;;
7398;SDS011;3740;50.700;7.184;2022-09-21T06:13:35;9.07;;;7.90;;
7398;SDS011;3740;50.700;7.184;2022-09-21T06:16:21;10.37;;;8.40;;
7398;SDS011;3740;50.700;7.184;2022-09-21T06:19:11;10.70;;;8.00;;
7398;SDS011;3740;50.700;7.184;2022-09-21T06:21:57;9.10;;;8.10;;
7398;SDS011;3740;50.700;7.184;2022-09-21T06:24:43;9.63;;;8.63;;
7398;SDS011;3740;50.700;7.184;2022-09-21T06:27:29;9.77;;;8.77;;
7398;SDS011;3740;50.700;7.184;2022-09-21T06:30:15;8.77;;;7.97;;
7398;SDS011;3740;50.700;7.184;2022-09-21T06:33:02;8.50;;;7.67;;
7398;SDS011;3740;50.700;7.184;2022-09-21T06:35:52;8.80;;;7.90;;
7398;SDS011;3740;50.700;7.184;2022-09-21T06:38:39;9.63;;;7.77;;
7398;SDS011;3740;50.700;7.184;2022-09-21T06:41:25;9.30;;;7.83;;
7398;SDS011;3740;50.700;7.184;2022-09-21T06:44:11;8.90;;;8.10;;
7398;SDS011;3740;50.700;7.184;2022-09-21T06:46:57;9.00;;;8.10;;
7398;SDS011;3740;50.700;7.184;2022-09-21T06:49:42;8.20;;;7.40;;
7398;SDS011;3740;50.700;7.184;2022-09-21T06:52:28;9.53;;;8.17;;
7398;SDS011;3740;50.700;7.184;2022-09-21T06:55:14;8.03;;;7.33;;
7398;SDS011;3740;50.700;7.184;2022-09-21T06:58:00;9.53;;;8.33;;
7398;SDS011;3740;50.700;7.184;2022-09-21T07:00:47;9.97;;;8.97;;
7398;SDS011;3740;50.700;7.184;2022-09-21T07:03:33;10.30;;;9.17;;
7398;SDS011;3740;50.700;7.184;2022-09-21T07:06:20;10.17;;;9.07;;
7398;SDS011;3740;50.700;7.184;2022-09-21T07:09:05;9.00;;;8.20;;
7398;SDS011;3740;50.700;7.184;2022-09-21T07:11:51;9.57;;;8.67;;
7398;SDS011;3740;50.700;7.184;2022-09-21T07:14:38;9.10;;;8.23;;
7398;SDS011;3740;50.700;7.184;2022-09-21T07:17:24;9.23;;;8.33;;
7398;SDS011;3740;50.700;7.184;2022-09-21T07:20:10;10.53;;;9.47;;
7398;SDS011;3740;50.700;7.184;2022-09-21T07:22:56;9.87;;;8.87;;
7398;SDS011;3740;50.700;7.184;2022-09-21T07:25:46;8.50;;;7.80;;
7398;SDS011;3740;50.700;7.184;2022-09-21T07:28:37;10.07;;;9.17;;
7398;SDS011;3740;50.700;7.184;2022-09-21T07:31:23;9.33;;;8.30;;
7398;SDS011;3740;50.700;7.184;2022-09-21T07:34:09;9.50;;;8.60;;
7398;SDS011;3740;50.700;7.184;2022-09-21T07:36:55;10.10;;;9.10;;
7398;SDS011;3740;50.700;7.184;2022-09-21T07:39:41;9.90;;;9.00;;
7398;SDS011;3740;50.700;7.184;2022-09-21T07:42:27;9.43;;;8.63;;
7398;SDS011;3740;50.700;7.184;2022-09-21T07:45:14;9.80;;;8.90;;
7398;SDS011;3740;50.700;7.184;2022-09-21T07:48:01;9.67;;;8.77;;
7398;SDS011;3740;50.700;7.184;2022-09-21T07:50:50;12.60;;;9.33;;
7398;SDS011;3740;50.700;7.184;2022-09-21T07:53:37;10.63;;;9.53;;
7398;SDS011;3740;50.700;7.184;2022-09-21T07:56:24;13.33;;;11.37;;
7398;SDS011;3740;50.700;7.184;2022-09-21T07:59:10;11.60;;;10.40;;
7398;SDS011;3740;50.700;7.184;2022-09-21T08:01:57;11.33;;;10.23;;
7398;SDS011;3740;50.700;7.184;2022-09-21T08:04:44;11.63;;;10.43;;
7398;SDS011;3740;50.700;7.184;2022-09-21T08:07:30;10.50;;;9.47;;
7398;SDS011;3740;50.700;7.184;2022-09-21T08:10:16;10.53;;;9.43;;
7398;SDS011;3740;50.700;7.184;2022-09-21T08:13:02;9.63;;;8.73;;
7398;SDS011;3740;50.700;7.184;2022-09-21T08:15:55;9.80;;;8.80;;
7398;SDS011;3740;50.700;7.184;2022-09-21T08:18:42;9.97;;;8.97;;
7398;SDS011;3740;50.700;7.184;2022-09-21T08:21:28;9.47;;;8.63;;
7398;SDS011;3740;50.700;7.184;2022-09-21T08:24:14;9.77;;;8.87;;
7398;SDS011;3740;50.700;7.184;2022-09-21T08:27:00;10.10;;;9.20;;
7398;SDS011;3740;50.700;7.184;2022-09-21T08:29:45;10.37;;;9.43;;
7398;SDS011;3740;50.700;7.184;2022-09-21T08:32:31;9.87;;;8.97;;
7398;SDS011;3740;50.700;7.184;2022-09-21T08:35:17;10.33;;;9.43;;
7398;SDS011;3740;50.700;7.184;2022-09-21T08:38:03;11.00;;;9.93;;
7398;SDS011;3740;50.700;7.184;2022-09-21T08:40:49;12.23;;;11.03;;
7398;SDS011;3740;50.700;7.184;2022-09-21T08:43:41;12.77;;;10.50;;
7398;SDS011;3740;50.700;7.184;2022-09-21T08:46:28;12.33;;;11.13;;
7398;SDS011;3740;50.700;7.184;2022-09-21T08:49:18;12.67;;;10.80;;
7398;SDS011;3740;50.700;7.184;2022-09-21T08:52:11;12.67;;;11.47;;
7398;SDS011;3740;50.700;7.184;2022-09-21T08:55:00;14.50;;;12.83;;
7398;SDS011;3740;50.700;7.184;2022-09-21T08:57:50;14.27;;;12.87;;
7398;SDS011;3740;50.700;7.184;2022-09-21T09:00:37;16.67;;;14.97;;
7398;SDS011;3740;50.700;7.184;2022-09-21T09:03:38;15.53;;;14.03;;
7398;SDS011;3740;50.700;7.184;2022-09-21T09:12:55;15.87;;;14.27;;
7398;SDS011;3740;50.700;7.184;2022-09-21T09:19:41;14.33;;;13.03;;
7398;SDS011;3740;50.700;7.184;2022-09-21T09:22:08;16.23;;;14.53;;
7398;SDS011;3740;50.700;7.184;2022-09-21T09:24:57;15.87;;;14.07;;
7398;SDS011;3740;50.700;7.184;2022-09-21T09:27:52;15.97;;;14.33;;
7398;SDS011;3740;50.700;7.184;2022-09-21T09:30:40;15.23;;;13.73;;
7398;SDS011;3740;50.700;7.184;2022-09-21T09:33:28;15.60;;;13.90;;
7398;SDS011;3740;50.700;7.184;2022-09-21T09:36:26;17.10;;;15.30;;
7398;SDS011;3740;50.700;7.184;2022-09-21T09:39:15;15.50;;;13.90;;
7398;SDS011;3740;50.700;7.184;2022-09-21T09:51:18;15.50;;;14.00;;
7398;SDS011;3740;50.700;7.184;2022-09-21T09:54:04;14.40;;;12.10;;
7398;SDS011;3740;50.700;7.184;2022-09-21T09:56:50;13.03;;;11.73;;
7398;SDS011;3740;50.700;7.184;2022-09-21T09:59:38;12.33;;;10.20;;
7398;SDS011;3740;50.700;7.184;2022-09-21T10:02:28;10.17;;;7.30;;
7398;SDS011;3740;50.700;7.184;2022-09-21T10:05:22;10.33;;;7.83;;
7398;SDS011;3740;50.700;7.184;2022-09-21T10:11:33;6.60;;;5.37;;
7398;SDS011;3740;50.700;7.184;2022-09-21T10:14:22;10.43;;;7.27;;
7398;SDS011;3740;50.700;7.184;2022-09-21T10:17:11;8.73;;;7.73;;
7398;SDS011;3740;50.700;7.184;2022-09-21T10:20:02;8.37;;;7.57;;
7398;SDS011;3740;50.700;7.184;2022-09-21T10:22:52;7.47;;;6.40;;
7398;SDS011;3740;50.700;7.184;2022-09-21T10:25:40;6.72;;;5.20;;
7398;SDS011;3740;50.700;7.184;2022-09-21T10:28:27;5.55;;;4.10;;
7398;SDS011;3740;50.700;7.184;2022-09-21T10:31:31;4.90;;;3.97;;
7398;SDS011;3740;50.700;7.184;2022-09-21T10:34:17;3.28;;;2.97;;
7398;SDS011;3740;50.700;7.184;2022-09-21T10:37:26;2.95;;;2.60;;
7398;SDS011;3740;50.700;7.184;2022-09-21T10:40:22;3.55;;;2.60;;
7398;SDS011;3740;50.700;7.184;2022-09-21T10:43:32;3.10;;;2.58;;
7398;SDS011;3740;50.700;7.184;2022-09-21T10:46:30;2.60;;;2.30;;
7398;SDS011;3740;50.700;7.184;2022-09-21T10:49:22;2.13;;;1.88;;
7398;SDS011;3740;50.700;7.184;2022-09-21T10:52:10;2.50;;;2.30;;
7398;SDS011;3740;50.700;7.184;2022-09-21T10:54:56;2.67;;;2.15;;
7398;SDS011;3740;50.700;7.184;2022-09-21T10:57:42;2.58;;;2.00;;
7398;SDS011;3740;50.700;7.184;2022-09-21T11:00:30;3.38;;;2.40;;
7398;SDS011;3740;50.700;7.184;2022-09-21T11:06:27;2.72;;;2.30;;
7398;SDS011;3740;50.700;7.184;2022-09-21T11:09:33;2.70;;;2.50;;
7398;SDS011;3740;50.700;7.184;2022-09-21T11:15:46;2.78;;;2.33;;
7398;SDS011;3740;50.700;7.184;2022-09-21T11:18:43;3.40;;;2.28;;
7398;SDS011;3740;50.700;7.184;2022-09-21T11:41:00;3.67;;;1.60;;
7398;SDS011;3740;50.700;7.184;2022-09-21T11:44:09;2.33;;;1.63;;
7398;SDS011;3740;50.700;7.184;2022-09-21T11:47:16;2.38;;;1.73;;
7398;SDS011;3740;50.700;7.184;2022-09-21T11:56:30;4.53;;;1.65;;
7398;SDS011;3740;50.700;7.184;2022-09-21T12:02:53;1.77;;;1.08;;
7398;SDS011;3740;50.700;7.184;2022-09-21T12:08:50;2.58;;;1.08;;
7398;SDS011;3740;50.700;7.184;2022-09-21T12:11:55;2.78;;;1.27;;
7398;SDS011;3740;50.700;7.184;2022-09-21T12:14:57;1.65;;;0.90;;
7398;SDS011;3740;50.700;7.184;2022-09-21T12:23:49;1.30;;;0.98;;
7398;SDS011;3740;50.700;7.184;2022-09-21T12:26:41;1.85;;;1.30;;
7398;SDS011;3740;50.700;7.184;2022-09-21T12:29:30;1.77;;;1.30;;
7398;SDS011;3740;50.700;7.184;2022-09-21T12:32:30;1.35;;;1.15;;
7398;SDS011;3740;50.700;7.184;2022-09-21T12:35:26;1.15;;;0.90;;
7398;SDS011;3740;50.700;7.184;2022-09-21T12:38:26;1.10;;;1.00;;
7398;SDS011;3740;50.700;7.184;2022-09-21T12:41:17;2.28;;;1.30;;
7398;SDS011;3740;50.700;7.184;2022-09-21T12:47:42;1.50;;;0.93;;
7398;SDS011;3740;50.700;7.184;2022-09-21T12:50:35;2.55;;;1.10;;
7398;SDS011;3740;50.700;7.184;2022-09-21T12:53:45;1.83;;;1.15;;
7398;SDS011;3740;50.700;7.184;2022-09-21T12:56:53;1.67;;;1.30;;
7398;SDS011;3740;50.700;7.184;2022-09-21T13:02:47;2.30;;;1.00;;
7398;SDS011;3740;50.700;7.184;2022-09-21T13:06:00;1.35;;;0.85;;
7398;SDS011;3740;50.700;7.184;2022-09-21T13:08:59;2.42;;;1.20;;
7398;SDS011;3740;50.700;7.184;2022-09-21T13:11:49;1.75;;;1.00;;
7398;SDS011;3740;50.700;7.184;2022-09-21T13:14:42;1.23;;;1.10;;
7398;SDS011;3740;50.700;7.184;2022-09-21T13:17:31;2.67;;;1.23;;
7398;SDS011;3740;50.700;7.184;2022-09-21T13:20:18;1.17;;;1.02;;
7398;SDS011;3740;50.700;7.184;2022-09-21T13:23:10;2.00;;;1.38;;
7398;SDS011;3740;50.700;7.184;2022-09-21T13:26:06;2.78;;;1.45;;
7398;SDS011;3740;50.700;7.184;2022-09-21T13:31:42;2.03;;;1.40;;
7398;SDS011;3740;50.700;7.184;2022-09-21T13:34:42;1.90;;;1.15;;
7398;SDS011;3740;50.700;7.184;2022-09-21T13:37:29;1.17;;;1.00;;
7398;SDS011;3740;50.700;7.184;2022-09-21T13:43:14;3.05;;;1.55;;
7398;SDS011;3740;50.700;7.184;2022-09-21T13:46:03;1.60;;;1.23;;
7398;SDS011;3740;50.700;7.184;2022-09-21T13:48:51;1.63;;;1.30;;
7398;SDS011;3740;50.700;7.184;2022-09-21T13:57:39;1.63;;;1.40;;
7398;SDS011;3740;50.700;7.184;2022-09-21T14:00:33;1.30;;;1.20;;
7398;SDS011;3740;50.700;7.184;2022-09-21T14:03:27;2.85;;;2.05;;
7398;SDS011;3740;50.700;7.184;2022-09-21T14:06:21;1.83;;;1.58;;
7398;SDS011;3740;50.700;7.184;2022-09-21T14:09:22;1.95;;;1.75;;
7398;SDS011;3740;50.700;7.184;2022-09-21T14:12:16;2.42;;;1.52;;
7398;SDS011;3740;50.700;7.184;2022-09-21T14:15:22;3.17;;;1.83;;
7398;SDS011;3740;50.700;7.184;2022-09-21T14:18:17;1.98;;;1.42;;
7398;SDS011;3740;50.700;7.184;2022-09-21T14:21:06;1.50;;;1.40;;
7398;SDS011;3740;50.700;7.184;2022-09-21T14:26:56;3.53;;;2.10;;
7398;SDS011;3740;50.700;7.184;2022-09-21T14:29:47;3.35;;;1.80;;
7398;SDS011;3740;50.700;7.184;2022-09-21T14:32:41;1.95;;;1.52;;
7398;SDS011;3740;50.700;7.184;2022-09-21T14:35:33;1.45;;;1.25;;
7398;SDS011;3740;50.700;7.184;2022-09-21T14:38:30;1.48;;;1.30;;
7398;SDS011;3740;50.700;7.184;2022-09-21T14:41:23;1.65;;;0.80;;
7398;SDS011;3740;50.700;7.184;2022-09-21T14:44:21;1.45;;;0.95;;
7398;SDS011;3740;50.700;7.184;2022-09-21T14:56:34;0.77;;;0.70;;
7398;SDS011;3740;50.700;7.184;2022-09-21T15:06:15;2.28;;;1.00;;
7398;SDS011;3740;50.700;7.184;2022-09-21T15:16:52;1.38;;;0.93;;
7398;SDS011;3740;50.700;7.184;2022-09-21T15:19:38;1.38;;;0.98;;
7398;SDS011;3740;50.700;7.184;2022-09-21T15:22:24;1.40;;;0.93;;
7398;SDS011;3740;50.700;7.184;2022-09-21T15:25:12;0.90;;;0.40;;
7398;SDS011;3740;50.700;7.184;2022-09-21T15:27:59;1.50;;;1.08;;
7398;SDS011;3740;50.700;7.184;2022-09-21T15:30:46;1.60;;;0.80;;
7398;SDS011;3740;50.700;7.184;2022-09-21T15:33:36;1.13;;;1.02;;
7398;SDS011;3740;50.700;7.184;2022-09-21T15:36:25;0.98;;;0.88;;
7398;SDS011;3740;50.700;7.184;2022-09-21T15:39:26;2.85;;;0.93;;
7398;SDS011;3740;50.700;7.184;2022-09-21T15:42:15;1.10;;;0.82;;
7398;SDS011;3740;50.700;7.184;2022-09-21T15:45:14;1.40;;;0.95;;
7398;SDS011;3740;50.700;7.184;2022-09-21T15:48:02;1.45;;;1.05;;
7398;SDS011;3740;50.700;7.184;2022-09-21T15:50:55;1.27;;;0.88;;
7398;SDS011;3740;50.700;7.184;2022-09-21T15:54:08;1.50;;;1.05;;
7398;SDS011;3740;50.700;7.184;2022-09-21T15:57:37;1.17;;;1.08;;
7398;SDS011;3740;50.700;7.184;2022-09-21T16:00:27;1.33;;;1.00;;
7398;SDS011;3740;50.700;7.184;2022-09-21T16:03:17;1.13;;;0.98;;
7398;SDS011;3740;50.700;7.184;2022-09-21T16:15:27;2.58;;;1.25;;
7398;SDS011;3740;50.700;7.184;2022-09-21T16:21:40;2.63;;;1.48;;
7398;SDS011;3740;50.700;7.184;2022-09-21T16:24:26;1.23;;;1.13;;
7398;SDS011;3740;50.700;7.184;2022-09-21T16:27:15;1.52;;;1.33;;
7398;SDS011;3740;50.700;7.184;2022-09-21T16:30:03;1.55;;;1.23;;
7398;SDS011;3740;50.700;7.184;2022-09-21T16:32:49;2.00;;;1.25;;
7398;SDS011;3740;50.700;7.184;2022-09-21T16:35:37;2.13;;;1.40;;
7398;SDS011;3740;50.700;7.184;2022-09-21T16:38:25;2.35;;;1.42;;
7398;SDS011;3740;50.700;7.184;2022-09-21T16:41:11;1.30;;;1.15;;
7398;SDS011;3740;50.700;7.184;2022-09-21T16:43:58;1.63;;;1.35;;
7398;SDS011;3740;50.700;7.184;2022-09-21T16:46:50;2.22;;;1.30;;
7398;SDS011;3740;50.700;7.184;2022-09-21T16:49:41;0.80;;;0.63;;
7398;SDS011;3740;50.700;7.184;2022-09-21T16:52:27;0.90;;;0.90;;
7398;SDS011;3740;50.700;7.184;2022-09-21T16:55:14;1.10;;;1.00;;
7398;SDS011;3740;50.700;7.184;2022-09-21T16:58:00;1.55;;;1.00;;
7398;SDS011;3740;50.700;7.184;2022-09-21T17:00:48;2.78;;;1.90;;
7398;SDS011;3740;50.700;7.184;2022-09-21T17:03:40;2.40;;;2.20;;
7398;SDS011;3740;50.700;7.184;2022-09-21T17:06:26;3.10;;;2.85;;
7398;SDS011;3740;50.700;7.184;2022-09-21T17:09:17;3.83;;;3.42;;
7398;SDS011;3740;50.700;7.184;2022-09-21T17:12:04;4.47;;;4.07;;
7398;SDS011;3740;50.700;7.184;2022-09-21T17:14:52;5.03;;;4.53;;
7398;SDS011;3740;50.700;7.184;2022-09-21T17:17:38;6.60;;;5.95;;
7398;SDS011;3740;50.700;7.184;2022-09-21T17:20:30;4.10;;;3.70;;
7398;SDS011;3740;50.700;7.184;2022-09-21T17:23:19;4.00;;;1.88;;
7398;SDS011;3740;50.700;7.184;2022-09-21T17:26:12;2.72;;;2.40;;
7398;SDS011;3740;50.700;7.184;2022-09-21T17:29:01;2.03;;;1.83;;
7398;SDS011;3740;50.700;7.184;2022-09-21T17:31:50;1.87;;;1.67;;
7398;SDS011;3740;50.700;7.184;2022-09-21T17:34:39;3.20;;;2.00;;
7398;SDS011;3740;50.700;7.184;2022-09-21T17:37:26;2.53;;;1.90;;
7398;SDS011;3740;50.700;7.184;2022-09-21T17:40:12;2.33;;;1.70;;
7398;SDS011;3740;50.700;7.184;2022-09-21T17:43:01;3.07;;;2.03;;
7398;SDS011;3740;50.700;7.184;2022-09-21T17:48:48;2.60;;;1.77;;
7398;SDS011;3740;50.700;7.184;2022-09-21T17:51:35;1.97;;;1.73;;
7398;SDS011;3740;50.700;7.184;2022-09-21T17:54:39;3.23;;;1.87;;
7398;SDS011;3740;50.700;7.184;2022-09-21T17:57:31;3.30;;;2.47;;
7398;SDS011;3740;50.700;7.184;2022-09-21T18:03:25;2.53;;;2.33;;
7398;SDS011;3740;50.700;7.184;2022-09-21T18:06:13;3.20;;;2.37;;
7398;SDS011;3740;50.700;7.184;2022-09-21T18:08:59;2.57;;;1.90;;
7398;SDS011;3740;50.700;7.184;2022-09-21T18:15:21;2.30;;;2.10;;
7398;SDS011;3740;50.700;7.184;2022-09-21T18:18:18;3.50;;;2.40;;
7398;SDS011;3740;50.700;7.184;2022-09-21T18:21:17;2.30;;;2.10;;
7398;SDS011;3740;50.700;7.184;2022-09-21T18:24:14;3.43;;;2.90;;
7398;SDS011;3740;50.700;7.184;2022-09-21T18:27:11;4.73;;;4.00;;
7398;SDS011;3740;50.700;7.184;2022-09-21T18:29:57;4.50;;;3.83;;
7398;SDS011;3740;50.700;7.184;2022-09-21T18:32:58;4.70;;;3.60;;
7398;SDS011;3740;50.700;7.184;2022-09-21T18:36:00;4.00;;;3.37;;
7398;SDS011;3740;50.700;7.184;2022-09-21T18:39:17;3.20;;;2.90;;
7398;SDS011;3740;50.700;7.184;2022-09-21T18:45:27;4.13;;;3.43;;
7398;SDS011;3740;50.700;7.184;2022-09-21T18:54:44;4.00;;;3.60;;
7398;SDS011;3740;50.700;7.184;2022-09-21T18:57:30;3.60;;;3.03;;
7398;SDS011;3740;50.700;7.184;2022-09-21T19:00:16;4.10;;;2.90;;
7398;SDS011;3740;50.700;7.184;2022-09-21T19:03:04;3.33;;;2.63;;
7398;SDS011;3740;50.700;7.184;2022-09-21T19:06:09;3.23;;;2.70;;
7398;SDS011;3740;50.700;7.184;2022-09-21T19:09:28;4.17;;;2.90;;
7398;SDS011;3740;50.700;7.184;2022-09-21T19:12:41;4.40;;;3.40;;
7398;SDS011;3740;50.700;7.184;2022-09-21T19:18:48;4.20;;;3.07;;
7398;SDS011;3740;50.700;7.184;2022-09-21T19:21:48;3.97;;;3.10;;
7398;SDS011;3740;50.700;7.184;2022-09-21T19:25:01;4.17;;;2.70;;
7398;SDS011;3740;50.700;7.184;2022-09-21T19:28:22;4.10;;;2.70;;
7398;SDS011;3740;50.700;7.184;2022-09-21T19:31:32;3.30;;;3.00;;
7398;SDS011;3740;50.700;7.184;2022-09-21T19:34:20;3.53;;;2.80;;
7398;SDS011;3740;50.700;7.184;2022-09-21T19:37:06;2.87;;;2.43;;
7398;SDS011;3740;50.700;7.184;2022-09-21T19:39:53;2.57;;;2.07;;
7398;SDS011;3740;50.700;7.184;2022-09-21T19:43:03;2.83;;;2.17;;
7398;SDS011;3740;50.700;7.184;2022-09-21T19:49:16;2.10;;;1.90;;
7398;SDS011;3740;50.700;7.184;2022-09-21T19:52:03;3.80;;;2.00;;
7398;SDS011;3740;50.700;7.184;2022-09-21T19:54:49;2.50;;;2.30;;
7398;SDS011;3740;50.700;7.184;2022-09-21T19:57:54;3.33;;;2.40;;
7398;SDS011;3740;50.700;7.184;2022-09-21T20:00:59;3.90;;;2.27;;
7398;SDS011;3740;50.700;7.184;2022-09-21T20:03:45;3.33;;;2.43;;
7398;SDS011;3740;50.700;7.184;2022-09-21T20:06:37;3.33;;;2.20;;
7398;SDS011;3740;50.700;7.184;2022-09-21T20:09:30;3.27;;;2.40;;
7398;SDS011;3740;50.700;7.184;2022-09-21T20:12:23;2.57;;;2.10;;
7398;SDS011;3740;50.700;7.184;2022-09-21T20:15:18;2.47;;;2.17;;
7398;SDS011;3740;50.700;7.184;2022-09-21T20:18:15;3.70;;;2.63;;
7398;SDS011;3740;50.700;7.184;2022-09-21T20:21:37;2.90;;;2.40;;
7398;SDS011;3740;50.700;7.184;2022-09-21T20:24:26;2.73;;;2.50;;
7398;SDS011;3740;50.700;7.184;2022-09-21T20:27:27;5.03;;;3.63;;
7398;SDS011;3740;50.700;7.184;2022-09-21T20:30:18;4.33;;;3.67;;
7398;SDS011;3740;50.700;7.184;2022-09-21T20:33:09;3.87;;;3.20;;
7398;SDS011;3740;50.700;7.184;2022-09-21T20:35:58;3.33;;;2.90;;
7398;SDS011;3740;50.700;7.184;2022-09-21T20:38:44;2.97;;;2.67;;
7398;SDS011;3740;50.700;7.184;2022-09-21T20:41:10;3.10;;;2.40;;
7398;SDS011;3740;50.700;7.184;2022-09-21T20:43:37;2.93;;;2.70;;
7398;SDS011;3740;50.700;7.184;2022-09-21T20:46:03;5.37;;;3.63;;
7398;SDS011;3740;50.700;7.184;2022-09-21T20:48:38;4.17;;;3.60;;